Portada
METAR-TAF:

METAR-TAF

Aeroports :

Vorónej, Rússia

latitud: 51-39N, longitud: 039-15E, altitud: 154 m

Observació

L'informe es va fer fa 40 minuts, a les 02:00 UTC
Vent 2 kt del Est/Nord-Est
Temperatura 10°C
Humitat 93%
Pressió 1023 hPa
Visibilitat 10 km o més
sense núvols per sota de 1500 mi sense presència de cumulonimbus.

METAR: UUOO 280200Z 06001MPS CAVOK 10/09 Q1023 R30/090070 NOSIG RMK QFE754

Hora: 05:40 (02:40 UTC)

Pronòstic

L'informe es va fer fa 42 minuts, a les 01:58 UTC
Pronòstic vàlid del 28 a les 03 UTC al 28 a les 12 UTC
Vent 6 kt del Est/Nord-Est
Visibilitat 10 km o més
Cel ennuvolat a una alçada de 4000 ft

TAF: UUOO 280158Z 2803/2812 06003MPS 9999 BKN040

Observacions i pronòstics meteorològics de més de 4000 aeroports (METAR i TAF).

Les estacions disponibles són els punts grocs i vermells al mapa.

Posi el ratolí al punt desitjat per veure el nom de l'estació.

Feu clic per veure les observacions i els pronòstics meteorològics.

Per canviar el mapa: feu clic els botons verds amb una creu de color negre per apropar; al botó verd amb un guió per allunyar la imatge; o en les fletxes verdes per a mapes adjacents.


METAR-TAF: